Pruitt, Arkansas
Current Conditions -  °F | °C
As of 9:53 PM on Saturday 22 Nov 2014 (Local Time) from KHRO Reporting Station
Few Clouds Few Clouds  
Wind Chill: 52°   Ceiling: Unl
Heat Index: 52°   Visibility: 10mi
Dew Point: 51°   Wind: 12mph
Humidity: 97%   Direction: 160°SSE
Pressure: 29.87"   Gusts: NA
Location:  36.0842°N, 93.1502°W
Report Text: KHRO 230353Z AUTO 16010KT 10SM FEW080 11/11 A2987 RMK AO2 SLP111 T01110106
Loading
Personal Weather Stations






























Interactive Weather Map New forecast layout! Learn more

10-Day Weather Forecast

Advertisements
Track Severe Weather on mobile